Time;durP1;ratioP1;P1;durP2;ratioP2;P2;SDS_P1;SDS_P2;PMS_P1;PMS_P2;Temp;Humidity;BMP_temperature;BMP_pressure;BME280_temperature;BME280_humidity;BME280_pressure;Samples;Min_cycle;Max_cycle;Signal;HPM_P1;HPM_P2
2023/01/15 00:00:13;;;;;;;1.65;0.60;;;;;;;19.75;47.49;99024.91;4992356;28;20041;-37
2023/01/15 00:02:38;;;;;;;0.95;0.50;;;;;;;19.65;47.42;99021.16;4993834;28;20030;-35
2023/01/15 00:05:04;;;;;;;1.48;0.60;;;;;;;19.66;48.04;99030.91;5007559;28;20079;-37
2023/01/15 00:07:30;;;;;;;1.27;0.52;;;;;;;19.72;47.49;99034.41;4982970;28;20038;-36
2023/01/15 00:09:56;;;;;;;1.13;0.60;;;;;;;19.66;47.42;99027.38;4994747;28;20345;-36
2023/01/15 00:12:21;;;;;;;0.75;0.40;;;;;;;19.72;47.75;99014.63;4997356;28;20022;-36
2023/01/15 00:14:47;;;;;;;1.48;0.65;;;;;;;19.67;47.80;99021.69;4992775;28;20025;-38
2023/01/15 00:17:13;;;;;;;0.60;0.50;;;;;;;19.68;48.24;99025.22;4992580;28;20034;-37
2023/01/15 00:19:39;;;;;;;1.20;0.60;;;;;;;19.69;47.82;99033.03;4994139;28;20034;-36
2023/01/15 00:22:04;;;;;;;1.05;0.47;;;;;;;19.68;47.80;99030.63;4996174;28;20404;-34
2023/01/15 00:29:58;;;;;;;1.58;0.60;;;;;;;19.62;48.15;99021.72;4983870;28;20078;-37
2023/01/15 00:32:26;;;;;;;0.70;0.57;;;;;;;19.64;47.71;99029.56;4995067;28;20485;-35
2023/01/15 00:34:53;;;;;;;1.08;0.43;;;;;;;19.63;47.29;99022.53;4994716;28;20397;-38
2023/01/15 00:37:19;;;;;;;1.75;0.50;;;;;;;19.61;48.04;99028.25;4995619;28;20057;-38
2023/01/15 00:39:45;;;;;;;2.13;0.52;;;;;;;19.65;48.04;99031.19;4995778;28;20440;-37
2023/01/15 00:42:10;;;;;;;1.67;0.60;;;;;;;19.55;48.06;99021.22;4995394;28;20120;-35
2023/01/15 00:44:36;;;;;;;0.50;0.45;;;;;;;19.55;47.57;99032.06;4992614;28;20068;-33
2023/01/15 00:47:02;;;;;;;0.70;0.50;;;;;;;19.56;47.75;99028.28;4981879;28;20026;-36
2023/01/15 00:49:27;;;;;;;0.60;0.50;;;;;;;19.58;48.33;99028.78;4995625;28;20093;-33
2023/01/15 00:51:54;;;;;;;0.82;0.50;;;;;;;19.51;48.35;99031.00;4995273;28;20428;-35
2023/01/15 00:54:20;;;;;;;1.30;0.52;;;;;;;19.55;48.37;99036.69;4995958;28;20449;-37
2023/01/15 00:56:46;;;;;;;0.98;0.60;;;;;;;19.58;48.23;99028.78;4994643;28;20041;-36
2023/01/15 00:59:11;;;;;;;1.35;0.60;;;;;;;19.53;48.22;99034.25;4989265;28;20455;-38
2023/01/15 01:01:37;;;;;;;0.75;0.50;;;;;;;19.55;48.25;99026.63;4994495;28;20179;-37
2023/01/15 01:04:03;;;;;;;0.95;0.50;;;;;;;19.56;48.52;99022.84;4994917;28;20030;-34
2023/01/15 01:06:28;;;;;;;1.35;0.60;;;;;;;19.51;48.50;99031.00;4995034;28;20057;-35
2023/01/15 01:08:54;;;;;;;1.40;0.60;;;;;;;19.52;48.58;99024.47;4993666;28;20044;-39
2023/01/15 01:11:23;;;;;;;1.42;0.60;;;;;;;19.49;48.64;99028.56;4994949;28;20030;-35
2023/01/15 01:13:49;;;;;;;0.60;0.40;;;;;;;19.50;48.51;99029.38;4989388;28;20022;-36
2023/01/15 01:16:36;;;;;;;1.30;0.50;;;;;;;19.50;48.16;99029.38;4994221;28;20137;-32
2023/01/15 01:19:06;;;;;;;1.10;0.40;;;;;;;19.46;48.73;99028.31;4992258;28;20034;-37
2023/01/15 01:21:31;;;;;;;0.80;0.50;;;;;;;19.53;48.47;99026.13;4993287;28;20911;-36
2023/01/15 01:23:58;;;;;;;1.80;0.50;;;;;;;19.45;48.55;99013.16;4984832;28;20460;-36
2023/01/15 01:26:24;;;;;;;2.08;0.47;;;;;;;19.47;48.83;99016.38;4991353;28;20056;-35
2023/01/15 01:28:50;;;;;;;0.93;0.52;;;;;;;19.46;48.92;99018.28;5009540;28;20268;-35
2023/01/15 01:31:16;;;;;;;1.27;0.40;;;;;;;19.44;48.95;99015.06;4991915;28;20033;-34
2023/01/15 01:33:42;;;;;;;0.77;0.63;;;;;;;19.42;48.85;99016.41;4997423;28;20034;-34
2023/01/15 01:36:08;;;;;;;0.85;0.60;;;;;;;19.43;48.99;99018.84;4993752;28;20069;-35
2023/01/15 01:38:33;;;;;;;1.58;0.70;;;;;;;19.45;48.67;99018.56;4994418;28;20021;-37
2023/01/15 01:40:59;;;;;;;1.00;0.40;;;;;;;19.41;48.91;99012.09;4985704;28;20152;-37
2023/01/15 01:43:26;;;;;;;0.80;0.70;;;;;;;19.45;48.89;99011.25;4992617;28;20101;-36
2023/01/15 01:45:51;;;;;;;1.20;0.60;;;;;;;19.43;49.00;99018.03;4994606;28;22000;-37
2023/01/15 01:48:19;;;;;;;1.00;0.50;;;;;;;19.41;48.84;99009.38;4994143;28;20359;-36
2023/01/15 01:50:45;;;;;;;0.57;0.50;;;;;;;19.41;49.04;99012.09;4991362;28;20037;-37
2023/01/15 01:53:22;;;;;;;1.05;0.47;;;;;;;19.39;48.86;99000.75;4989767;28;20038;-36
2023/01/15 01:55:48;;;;;;;0.43;0.35;;;;;;;19.31;49.27;99005.63;4992077;28;20026;-37
2023/01/15 01:58:14;;;;;;;0.88;0.50;;;;;;;19.30;49.37;98987.78;4992793;28;20509;-37
2023/01/15 02:00:41;;;;;;;0.80;0.40;;;;;;;19.36;48.78;98993.16;4997110;28;20133;-35
2023/01/15 02:03:06;;;;;;;0.40;0.40;;;;;;;19.39;48.96;99000.75;4990461;28;20030;-35
2023/01/15 02:05:34;;;;;;;1.10;0.50;;;;;;;19.35;49.26;98989.66;4991798;28;20033;-37
2023/01/15 02:08:00;;;;;;;1.23;0.77;;;;;;;19.32;48.67;98993.72;4990342;28;20032;-36
2023/01/15 02:10:26;;;;;;;0.70;0.40;;;;;;;19.39;48.86;98995.31;4989098;28;20021;-37
2023/01/15 02:13:24;;;;;;;1.33;0.60;;;;;;;19.31;49.50;98988.56;4993097;28;20018;-36
2023/01/15 02:15:58;;;;;;;1.17;0.60;;;;;;;19.29;49.32;98986.16;4994760;28;20026;-36
2023/01/15 02:18:33;;;;;;;1.10;0.45;;;;;;;19.28;49.42;98984.53;4992525;28;20470;-36
2023/01/15 02:21:03;;;;;;;0.80;0.50;;;;;;;19.33;49.20;98976.38;4989062;28;20455;-35
2023/01/15 02:23:51;;;;;;;2.30;0.50;;;;;;;19.36;49.24;98975.00;4987509;28;20087;-39
2023/01/15 02:26:35;;;;;;;1.55;0.50;;;;;;;19.32;49.11;98973.97;4992233;28;20385;-37
2023/01/15 02:29:00;;;;;;;0.75;0.40;;;;;;;19.27;49.46;98971.28;4991951;28;20052;-37
2023/01/15 02:31:36;;;;;;;1.35;0.60;;;;;;;19.26;49.35;98965.03;5008881;28;20021;-36
2023/01/15 02:34:05;;;;;;;1.10;0.50;;;;;;;19.25;49.55;98968.84;4982556;28;20037;-37
2023/01/15 02:36:33;;;;;;;1.30;0.60;;;;;;;19.28;49.38;98962.03;4981573;28;20052;-36
2023/01/15 02:39:00;;;;;;;0.77;0.55;;;;;;;19.26;49.42;98970.44;4986167;28;20040;-37
2023/01/15 02:41:29;;;;;;;0.88;0.50;;;;;;;19.26;49.72;98967.72;4985614;28;20040;-33
2023/01/15 02:43:56;;;;;;;1.02;0.60;;;;;;;19.26;49.39;98967.72;4989989;28;20026;-36
2023/01/15 02:46:23;;;;;;;0.65;0.40;;;;;;;19.26;49.60;98959.63;4992009;28;20473;-35
2023/01/15 02:48:51;;;;;;;1.20;0.60;;;;;;;19.28;49.16;98951.22;4992688;28;20489;-37
2023/01/15 02:51:19;;;;;;;0.98;0.45;;;;;;;19.27;49.63;98950.41;4991426;28;20026;-38
2023/01/15 02:53:46;;;;;;;1.13;0.50;;;;;;;19.19;49.97;98942.06;4985850;28;20111;-36
2023/01/15 02:56:14;;;;;;;0.50;0.40;;;;;;;19.24;49.51;98942.84;4994149;28;20026;-36
2023/01/15 02:58:41;;;;;;;1.67;0.60;;;;;;;19.19;49.90;98948.28;4992549;28;20106;-37
2023/01/15 03:01:10;;;;;;;0.93;0.50;;;;;;;19.17;49.91;98955.88;4992423;28;20386;-33
2023/01/15 03:04:02;;;;;;;0.82;0.45;;;;;;;19.18;49.97;98941.25;4993715;28;20076;-37
2023/01/15 03:06:42;;;;;;;1.17;0.52;;;;;;;19.15;49.77;98949.94;4987825;28;20049;-35
2023/01/15 03:09:07;;;;;;;1.38;0.60;;;;;;;19.14;49.87;98943.72;4980259;28;20033;-36
2023/01/15 03:11:36;;;;;;;1.05;0.73;;;;;;;19.18;49.86;98941.25;5004090;28;20029;-37
2023/01/15 03:14:05;;;;;;;0.68;0.47;;;;;;;19.14;50.17;98943.72;4989773;28;20068;-35
2023/01/15 03:16:34;;;;;;;1.27;0.60;;;;;;;19.18;49.88;98946.69;4992948;28;20040;-36
2023/01/15 03:19:15;;;;;;;1.23;0.60;;;;;;;19.10;50.11;98944.56;5000369;28;20056;-33
2023/01/15 03:21:56;;;;;;;0.35;0.30;;;;;;;19.14;49.96;98937.47;4991573;28;20026;-37
2023/01/15 03:24:28;;;;;;;1.25;0.40;;;;;;;19.12;50.33;98928.84;4995923;28;20046;-36
2023/01/15 03:26:53;;;;;;;0.90;0.40;;;;;;;19.18;49.86;98921.47;4996081;28;20433;-36
2023/01/15 03:29:20;;;;;;;0.98;0.43;;;;;;;19.12;50.02;98907.97;4997268;28;20046;-36
2023/01/15 03:31:45;;;;;;;1.50;0.50;;;;;;;19.14;49.79;98907.69;4988848;28;20396;-37
2023/01/15 03:34:11;;;;;;;0.88;0.50;;;;;;;19.12;50.17;98905.25;4996916;28;20018;-37
2023/01/15 03:36:37;;;;;;;0.73;0.40;;;;;;;19.07;50.26;98902.59;4996882;28;20061;-35
2023/01/15 03:39:03;;;;;;;0.82;0.50;;;;;;;19.07;50.09;98901.78;4996014;28;20061;-38
2023/01/15 03:42:03;;;;;;;0.75;0.50;;;;;;;19.11;50.17;98902.84;4983417;28;20018;-37
2023/01/15 03:44:38;;;;;;;1.40;0.60;;;;;;;19.12;50.33;98912.59;4987331;28;20074;-37
2023/01/15 03:47:04;;;;;;;0.85;0.38;;;;;;;19.14;49.93;98916.66;4994823;28;20162;-35
2023/01/15 03:49:47;;;;;;;1.42;0.50;;;;;;;19.10;50.07;98912.06;4996483;28;20049;-35
2023/01/15 03:52:32;;;;;;;0.57;0.47;;;;;;;19.06;50.03;98905.59;4991858;28;20495;-37
2023/01/15 03:55:14;;;;;;;0.80;0.40;;;;;;;19.08;50.06;98900.72;4992527;28;20386;-33
2023/01/15 03:57:49;;;;;;;2.47;0.60;;;;;;;19.05;50.35;98885.81;4994868;28;20026;-32
2023/01/15 04:00:26;;;;;;;0.63;0.50;;;;;;;19.10;50.09;98887.69;4994966;28;20022;-34
2023/01/15 04:02:53;;;;;;;1.10;0.60;;;;;;;19.08;50.27;98890.69;4988144;28;20428;-34
2023/01/15 04:05:19;;;;;;;1.60;0.60;;;;;;;19.07;49.76;98877.41;4994795;28;20030;-33
2023/01/15 04:07:45;;;;;;;0.80;0.50;;;;;;;19.05;50.27;98877.69;4994955;28;20037;-37
2023/01/15 04:10:10;;;;;;;0.82;0.50;;;;;;;19.03;50.64;98879.88;4995290;28;20089;-37
2023/01/15 04:12:36;;;;;;;0.50;0.40;;;;;;;19.04;50.61;98880.69;4976113;28;20036;-37
2023/01/15 04:15:02;;;;;;;0.40;0.40;;;;;;;19.01;50.58;98875.84;4982370;28;20065;-37
2023/01/15 04:17:28;;;;;;;1.70;0.60;;;;;;;19.07;49.90;98867.38;4971123;28;20092;-37
2023/01/15 04:19:53;;;;;;;1.08;0.50;;;;;;;19.01;50.00;98857.69;5008977;28;20018;-36
2023/01/15 04:22:19;;;;;;;1.67;0.60;;;;;;;19.00;50.48;98842.53;4988502;28;20025;-37
2023/01/15 04:24:45;;;;;;;1.88;0.63;;;;;;;18.97;50.20;98842.28;4994810;28;20052;-42
2023/01/15 04:27:10;;;;;;;2.35;0.70;;;;;;;19.00;50.32;98839.03;4994280;28;20497;-38
2023/01/15 04:29:36;;;;;;;1.48;0.60;;;;;;;19.01;50.59;98829.81;4994597;28;20025;-36
2023/01/15 04:32:02;;;;;;;0.73;0.60;;;;;;;18.95;50.98;98816.31;4995658;28;20037;-34
2023/01/15 04:34:27;;;;;;;0.77;0.50;;;;;;;18.91;50.38;98811.75;4984555;28;20465;-37
2023/01/15 04:36:54;;;;;;;1.73;0.60;;;;;;;18.97;50.77;98809.81;4993911;28;20908;-35
2023/01/15 04:39:20;;;;;;;0.50;0.50;;;;;;;18.94;50.75;98805.78;4996380;28;20188;-34
2023/01/15 04:44:31;;;;;;;1.45;0.63;;;;;;;18.93;50.86;98807.66;4993716;28;20041;-36
2023/01/15 04:46:58;;;;;;;0.60;0.60;;;;;;;18.90;51.12;98800.13;4993201;28;20025;-36
2023/01/15 04:49:24;;;;;;;0.95;0.50;;;;;;;18.90;50.77;98802.81;4992626;28;20076;-37
2023/01/15 04:51:50;;;;;;;1.65;0.60;;;;;;;18.97;50.57;98798.97;4995128;28;20018;-37
2023/01/15 04:54:16;;;;;;;0.68;0.57;;;;;;;18.98;50.66;98800.59;4995652;28;20098;-36
2023/01/15 04:56:43;;;;;;;2.03;0.80;;;;;;;18.91;50.60;98796.31;4992004;28;20560;-37
2023/01/15 04:59:09;;;;;;;0.63;0.50;;;;;;;18.94;50.73;98801.16;4989314;28;20058;-36
2023/01/15 05:01:34;;;;;;;1.52;0.40;;;;;;;18.91;50.92;98796.31;4987287;28;20101;-38
2023/01/15 05:04:00;;;;;;;1.05;0.47;;;;;;;18.87;50.36;98783.63;4996100;28;20033;-38
2023/01/15 05:06:26;;;;;;;1.02;0.50;;;;;;;18.91;50.63;98774.66;4994253;28;20026;-36
2023/01/15 05:08:53;;;;;;;1.25;0.40;;;;;;;18.84;50.84;98768.75;4995295;28;20033;-36
2023/01/15 05:11:19;;;;;;;1.45;0.60;;;;;;;18.91;50.88;98753.00;4993394;28;20030;-36
2023/01/15 05:13:45;;;;;;;1.23;0.55;;;;;;;18.85;50.86;98753.31;4983191;28;20485;-37
2023/01/15 05:16:11;;;;;;;0.65;0.40;;;;;;;18.86;50.98;98744.91;4995267;28;20037;-34
2023/01/15 05:18:37;;;;;;;0.88;0.63;;;;;;;18.81;51.12;98730.59;4994222;28;20028;-34
2023/01/15 05:21:03;;;;;;;0.60;0.40;;;;;;;18.85;50.95;98732.47;4993710;28;20521;-37
2023/01/15 05:23:29;;;;;;;1.42;0.60;;;;;;;18.84;50.39;98725.44;4992718;28;20120;-37
2023/01/15 05:25:54;;;;;;;1.77;0.80;;;;;;;18.77;51.14;98716.81;4992946;28;20022;-35
2023/01/15 05:28:20;;;;;;;1.75;0.55;;;;;;;18.83;49.69;98713.00;4995769;28;20389;-37
2023/01/15 05:30:46;;;;;;;1.27;0.50;;;;;;;18.77;51.29;98704.09;4994166;28;20117;-33
2023/01/15 05:33:11;;;;;;;1.52;0.60;;;;;;;18.83;51.09;98699.47;4993623;28;20022;-37
2023/01/15 05:35:37;;;;;;;1.95;0.50;;;;;;;18.80;51.08;98691.06;4995317;28;20132;-34
2023/01/15 05:38:05;;;;;;;0.50;0.40;;;;;;;18.77;51.26;98682.44;4994790;28;20501;-37
2023/01/15 05:40:31;;;;;;;0.60;0.50;;;;;;;18.76;50.90;98678.13;4986977;28;20026;-37
2023/01/15 05:42:56;;;;;;;1.27;0.70;;;;;;;18.76;51.27;98680.00;4992883;28;20392;-37
2023/01/15 05:45:22;;;;;;;0.93;0.70;;;;;;;18.79;50.71;98676.75;4992640;28;20032;-37
2023/01/15 05:47:48;;;;;;;1.17;0.80;;;;;;;18.75;50.93;98665.69;4984619;28;20033;-34
2023/01/15 05:50:13;;;;;;;0.95;0.60;;;;;;;18.78;51.20;98664.28;4993771;28;20026;-35
2023/01/15 05:52:39;;;;;;;1.30;0.55;;;;;;;18.77;51.47;98649.97;4994595;28;20030;-32
2023/01/15 05:55:05;;;;;;;0.88;0.57;;;;;;;18.76;51.18;98652.94;4994415;28;20021;-36
2023/01/15 05:57:31;;;;;;;1.02;0.52;;;;;;;18.77;50.54;98639.13;4989332;28;20236;-37
2023/01/15 05:59:57;;;;;;;0.88;0.52;;;;;;;18.75;51.40;98633.19;4992834;28;20521;-38
2023/01/15 06:02:23;;;;;;;0.52;0.50;;;;;;;18.79;51.09;98636.16;4993623;28;20113;-38
2023/01/15 06:04:49;;;;;;;0.60;0.60;;;;;;;18.67;51.41;98612.16;4993569;28;20029;-36
2023/01/15 06:07:16;;;;;;;0.75;0.60;;;;;;;18.73;51.29;98602.91;4984736;28;20040;-35
2023/01/15 06:09:43;;;;;;;1.00;0.60;;;;;;;18.68;51.11;98591.31;4992315;28;20044;-37
2023/01/15 06:12:09;;;;;;;0.80;0.65;;;;;;;18.70;51.53;98575.63;4993300;28;20037;-37
2023/01/15 06:14:34;;;;;;;0.63;0.50;;;;;;;18.77;51.27;98576.09;4992741;28;20056;-36
2023/01/15 06:17:00;;;;;;;0.73;0.50;;;;;;;18.71;51.34;98569.94;4983745;28;20079;-37
2023/01/15 06:19:25;;;;;;;1.92;0.88;;;;;;;18.72;51.14;98576.16;4993020;28;20025;-35
2023/01/15 06:21:51;;;;;;;0.47;0.47;;;;;;;18.71;51.25;98566.41;4992403;28;20025;-32
2023/01/15 06:24:18;;;;;;;0.70;0.60;;;;;;;18.71;51.00;98556.41;4996639;28;20030;-34
2023/01/15 06:26:44;;;;;;;0.82;0.52;;;;;;;18.68;51.16;98553.44;4979804;28;20108;-33
2023/01/15 06:29:10;;;;;;;2.50;0.88;;;;;;;18.65;51.56;98546.72;4990112;28;20075;-35
2023/01/15 06:31:36;;;;;;;0.90;0.50;;;;;;;18.62;51.63;98543.78;4992980;28;20040;-35
2023/01/15 06:34:01;;;;;;;1.30;0.60;;;;;;;18.59;50.89;98531.59;4992317;28;20036;-34
2023/01/15 06:36:28;;;;;;;1.15;0.65;;;;;;;18.65;50.60;98521.56;4989560;28;20045;-35
2023/01/15 06:38:53;;;;;;;1.40;0.65;;;;;;;18.63;51.22;98518.34;4985154;28;20034;-38
2023/01/15 06:49:35;;;;;;;0.75;0.50;;;;;;;18.63;51.31;98481.28;4979993;28;22153;-35
2023/01/15 06:52:00;;;;;;;2.03;0.60;;;;;;;18.65;51.30;98470.16;4993728;28;20088;-36
2023/01/15 06:54:26;;;;;;;1.05;0.60;;;;;;;18.58;51.24;98457.78;4995025;28;20358;-37
2023/01/15 06:56:53;;;;;;;0.43;0.43;;;;;;;18.63;50.74;98465.03;4989329;28;20033;-35
2023/01/15 06:59:18;;;;;;;0.85;0.70;;;;;;;18.54;50.43;98462.16;4996943;28;20787;-36
2023/01/15 07:01:44;;;;;;;0.98;0.60;;;;;;;18.55;51.63;98446.72;4997027;28;20025;-36
2023/01/15 07:04:10;;;;;;;1.52;0.60;;;;;;;18.62;51.26;98440.97;4995614;28;20029;-34
2023/01/15 07:06:35;;;;;;;1.20;0.70;;;;;;;18.62;50.84;98443.69;4980724;28;20034;-31
2023/01/15 07:09:01;;;;;;;0.77;0.60;;;;;;;18.55;51.45;98444.81;4989349;28;20511;-36
2023/01/15 07:11:27;;;;;;;1.13;0.70;;;;;;;18.50;51.22;98425.94;4997638;28;20413;-33
2023/01/15 07:14:04;;;;;;;1.15;0.80;;;;;;;18.50;51.49;98425.94;4993619;28;20104;-35
2023/01/15 07:16:36;;;;;;;0.82;0.60;;;;;;;18.58;51.45;98425.31;4993506;28;20485;-36
2023/01/15 07:19:03;;;;;;;0.85;0.70;;;;;;;18.45;51.89;98417.09;4996099;28;20030;-37
2023/01/15 07:21:28;;;;;;;0.88;0.55;;;;;;;18.53;51.57;98411.84;4997930;28;20026;-37
2023/01/15 07:23:57;;;;;;;2.15;0.70;;;;;;;18.42;51.85;98413.06;4997765;28;20465;-30
2023/01/15 07:26:22;;;;;;;1.33;0.70;;;;;;;18.50;51.65;98406.19;4992532;28;20022;-34
2023/01/15 07:28:48;;;;;;;0.80;0.55;;;;;;;18.50;51.54;98409.72;4998732;28;20033;-35
2023/01/15 07:31:14;;;;;;;0.98;0.82;;;;;;;18.51;51.53;98402.41;4996186;28;20068;-34
2023/01/15 07:33:39;;;;;;;1.67;0.70;;;;;;;18.54;51.54;98399.94;4997341;28;20037;-34
2023/01/15 07:36:05;;;;;;;1.20;0.70;;;;;;;18.41;51.49;98387.09;4986797;28;20053;-33
2023/01/15 07:38:31;;;;;;;1.98;0.70;;;;;;;18.48;51.32;98390.25;4998687;28;20030;-35
2023/01/15 07:51:54;;;;;;;;;;;;;;;18.39;52.17;98368.47;4998742;28;20115;-33
2023/01/15 07:54:19;;;;;;;0.75;0.52;;;;;;;18.46;51.76;98372.72;4991138;28;19918;-33
2023/01/15 07:56:45;;;;;;;1.00;0.60;;;;;;;18.41;51.95;98351.16;4997203;28;20125;-31
2023/01/15 07:59:11;;;;;;;0.95;0.82;;;;;;;18.35;51.58;98351.22;4995554;28;20487;-33
2023/01/15 08:01:36;;;;;;;0.77;0.60;;;;;;;18.29;50.82;98346.94;4990853;28;20034;-31
2023/01/15 08:04:02;;;;;;;1.25;0.70;;;;;;;18.35;52.22;98344.97;4997176;28;20041;-32
2023/01/15 08:06:28;;;;;;;0.88;0.60;;;;;;;18.42;51.59;98331.94;4996587;28;20026;-33
2023/01/15 08:08:53;;;;;;;1.42;0.75;;;;;;;18.33;50.72;98320.94;4996377;28;20018;-33
2023/01/15 08:16:47;;;;;;;1.08;0.60;;;;;;;18.35;51.75;98291.72;4992829;28;20440;-34
2023/01/15 08:19:13;;;;;;;0.85;0.63;;;;;;;18.38;51.90;98279.50;4995654;28;20030;-33
2023/01/15 08:21:38;;;;;;;1.08;0.70;;;;;;;18.37;51.74;98267.88;4995240;28;20310;-35
2023/01/15 08:24:04;;;;;;;0.93;0.63;;;;;;;18.34;51.84;98262.25;4992097;28;20481;-30
2023/01/15 08:26:30;;;;;;;0.93;0.70;;;;;;;18.33;51.78;98260.63;4994585;28;20110;-34
2023/01/15 08:28:56;;;;;;;0.52;0.52;;;;;;;18.33;51.63;98272.28;4993878;28;20113;-33
2023/01/15 08:31:22;;;;;;;1.75;0.80;;;;;;;18.32;51.01;98253.63;4997290;28;20365;-31
2023/01/15 08:33:47;;;;;;;1.20;0.80;;;;;;;18.36;51.61;98265.47;4994944;28;20044;-36
2023/01/15 08:36:14;;;;;;;1.27;0.70;;;;;;;18.36;50.88;98254.66;4985155;28;20443;-33
2023/01/15 08:38:40;;;;;;;1.23;0.80;;;;;;;18.29;51.72;98243.41;4998120;28;20037;-33
2023/01/15 08:41:06;;;;;;;0.82;0.70;;;;;;;18.35;51.64;98248.44;4997629;28;20109;-37
2023/01/15 08:43:34;;;;;;;0.93;0.70;;;;;;;18.36;51.34;98235.72;4992129;28;20473;-34
2023/01/15 08:46:01;;;;;;;1.77;0.85;;;;;;;18.34;51.75;98222.50;4988133;28;20059;-34
2023/01/15 08:48:27;;;;;;;1.38;0.77;;;;;;;18.28;51.78;98217.44;4991713;28;20092;-35
2023/01/15 08:50:53;;;;;;;0.77;0.60;;;;;;;18.25;51.59;98199.91;4993595;28;20057;-33
2023/01/15 08:53:19;;;;;;;0.80;0.80;;;;;;;18.32;51.70;98194.16;4994664;28;20037;-33
2023/01/15 08:55:45;;;;;;;0.88;0.73;;;;;;;18.23;51.29;98185.06;4983530;28;20392;-36
2023/01/15 08:58:11;;;;;;;0.75;0.60;;;;;;;18.15;51.52;98179.22;4992502;28;20029;-34
2023/01/15 09:00:37;;;;;;;1.00;0.80;;;;;;;18.24;52.03;98173.16;4993797;28;20029;-32
2023/01/15 09:03:03;;;;;;;0.70;0.63;;;;;;;18.27;51.85;98176.09;4992033;28;20034;-35
2023/01/15 09:05:28;;;;;;;0.90;0.77;;;;;;;18.27;51.63;98164.47;4983937;28;20257;-33
2023/01/15 09:07:54;;;;;;;0.75;0.70;;;;;;;18.28;51.46;98166.06;4991340;28;20033;-33
2023/01/15 09:10:20;;;;;;;0.70;0.60;;;;;;;18.28;51.70;98164.19;4992863;28;20366;-36
2023/01/15 09:12:46;;;;;;;0.68;0.57;;;;;;;18.25;51.34;98150.44;4993424;28;20474;-30
2023/01/15 09:15:12;;;;;;;0.98;0.70;;;;;;;18.16;50.85;98144.88;4994918;28;20331;-35
2023/01/15 09:17:39;;;;;;;1.10;0.90;;;;;;;18.13;51.10;98157.09;4988025;28;20052;-33
2023/01/15 09:20:07;;;;;;;1.35;0.75;;;;;;;18.10;50.57;98146.06;4992828;28;20044;-37
2023/01/15 09:22:32;;;;;;;0.80;0.80;;;;;;;18.15;51.95;98144.09;4994609;28;20226;-36
2023/01/15 09:24:58;;;;;;;0.60;0.60;;;;;;;18.08;51.87;98132.84;4992972;28;20026;-36
2023/01/15 09:27:24;;;;;;;1.33;0.77;;;;;;;18.14;50.33;98125.44;4989053;28;20052;-37
2023/01/15 09:29:50;;;;;;;0.73;0.73;;;;;;;18.05;52.15;98122.59;4995229;28;20030;-33
2023/01/15 09:32:16;;;;;;;1.48;0.70;;;;;;;18.09;51.19;98120.94;4992629;28;20173;-34
2023/01/15 09:34:41;;;;;;;1.00;0.73;;;;;;;18.10;52.00;98119.84;4995227;28;20042;-35
2023/01/15 09:37:07;;;;;;;0.77;0.77;;;;;;;18.12;52.00;98104.13;4979987;28;20157;-35
2023/01/15 09:39:33;;;;;;;0.85;0.60;;;;;;;18.10;52.08;98108.22;4992530;28;20385;-34
2023/01/15 09:42:14;;;;;;;0.95;0.60;;;;;;;18.06;52.10;98099.91;4994395;28;20396;-36
2023/01/15 09:44:43;;;;;;;0.70;0.60;;;;;;;18.13;51.89;98094.91;4992405;28;20041;-37
2023/01/15 09:47:17;;;;;;;0.85;0.60;;;;;;;18.15;51.57;98087.31;4992578;28;20500;-34
2023/01/15 09:49:48;;;;;;;0.60;0.60;;;;;;;18.11;51.50;98069.28;4990920;28;20029;-33
2023/01/15 09:52:30;;;;;;;0.65;0.52;;;;;;;18.06;51.80;98072.03;4991188;28;20022;-35
2023/01/15 09:55:02;;;;;;;1.05;0.70;;;;;;;17.99;51.47;98061.63;5008965;28;20092;-33
2023/01/15 09:57:27;;;;;;;0.68;0.68;;;;;;;17.96;50.87;98056.81;4986796;28;20402;-35
2023/01/15 09:59:59;;;;;;;0.65;0.50;;;;;;;18.00;51.62;98052.41;4990719;28;20080;-36
2023/01/15 10:02:42;;;;;;;1.10;0.60;;;;;;;18.01;51.90;98037.81;4992087;28;20041;-36
2023/01/15 10:05:18;;;;;;;0.80;0.60;;;;;;;18.04;51.86;98039.94;4992709;28;20361;-35
2023/01/15 10:07:50;;;;;;;0.52;0.47;;;;;;;17.99;52.16;98029.19;5008007;28;20626;-36
2023/01/15 10:10:17;;;;;;;0.43;0.43;;;;;;;17.92;52.38;98028.75;4992612;28;20743;-34
2023/01/15 10:12:44;;;;;;;0.40;0.40;;;;;;;18.05;51.80;98027.22;4980872;28;20113;-35
2023/01/15 10:15:13;;;;;;;0.60;0.50;;;;;;;17.93;51.92;98001.44;4992483;28;20034;-34
2023/01/15 10:17:44;;;;;;;0.70;0.55;;;;;;;17.98;51.67;98019.47;4992438;28;20824;-33
2023/01/15 10:20:32;;;;;;;0.60;0.57;;;;;;;17.91;51.65;98010.94;4994410;28;20113;-32
2023/01/15 10:23:35;;;;;;;0.60;0.57;;;;;;;17.95;52.29;98009.25;4991093;28;20022;-30
2023/01/15 10:26:09;;;;;;;0.70;0.60;;;;;;;17.94;52.27;97980.66;4986703;28;20080;-34
2023/01/15 10:29:05;;;;;;;1.00;0.65;;;;;;;17.88;52.38;97981.81;4994877;28;20049;-31
2023/01/15 10:31:47;;;;;;;0.82;0.60;;;;;;;17.94;52.23;97972.53;5009090;28;20531;-37
2023/01/15 10:34:37;;;;;;;0.40;0.40;;;;;;;17.89;52.43;97983.44;4994545;28;20076;-34
2023/01/15 10:37:25;;;;;;;0.50;0.50;;;;;;;17.94;51.92;97956.31;4988788;28;20044;-34
2023/01/15 10:39:58;;;;;;;0.80;0.60;;;;;;;17.95;51.71;97956.00;4992379;28;20046;-37
2023/01/15 10:42:48;;;;;;;0.63;0.55;;;;;;;17.90;52.26;97964.22;4986908;28;20044;-32
2023/01/15 10:45:24;;;;;;;0.52;0.52;;;;;;;17.86;51.98;97965.06;4987053;28;20077;-33
2023/01/15 10:48:15;;;;;;;0.55;0.55;;;;;;;17.75;52.07;97953.63;4991891;28;20635;-34
2023/01/15 10:50:40;;;;;;;0.40;0.40;;;;;;;17.86;52.54;97946.16;4992561;28;20053;-35
2023/01/15 10:53:27;;;;;;;0.60;0.60;;;;;;;17.88;51.88;97941.28;4975510;28;20559;-34
2023/01/15 10:55:56;;;;;;;0.63;0.50;;;;;;;17.89;52.47;97940.19;4980166;28;20033;-31
2023/01/15 10:58:33;;;;;;;0.50;0.50;;;;;;;17.84;52.47;97941.84;4993046;28;20034;-35
2023/01/15 11:01:05;;;;;;;0.65;0.60;;;;;;;17.86;52.45;97943.44;4992336;28;20029;-32
2023/01/15 11:03:42;;;;;;;0.50;0.50;;;;;;;17.84;52.05;97933.72;4991536;28;20448;-32
2023/01/15 11:06:18;;;;;;;0.60;0.60;;;;;;;17.86;52.37;97921.84;5023506;28;20976;-37
2023/01/15 11:08:54;;;;;;;0.60;0.60;;;;;;;17.82;51.58;97914.31;4970736;28;20033;-34
2023/01/15 11:20:44;;;;;;;0.70;0.57;;;;;;;17.75;52.57;97905.78;5010409;28;20043;-31
2023/01/15 11:23:14;;;;;;;0.80;0.65;;;;;;;17.81;52.45;97893.78;5009622;28;20397;-31
2023/01/15 11:25:54;;;;;;;0.50;0.50;;;;;;;17.85;52.26;97888.63;5000845;28;20034;-32
2023/01/15 11:28:40;;;;;;;0.85;0.60;;;;;;;17.78;52.43;97890.88;4984928;28;20054;-33
2023/01/15 11:31:06;;;;;;;0.30;0.30;;;;;;;17.79;52.64;97890.59;5006104;28;20033;-36
2023/01/15 11:33:32;;;;;;;0.40;0.40;;;;;;;17.76;52.31;97891.16;4991167;28;20029;-33
2023/01/15 11:36:00;;;;;;;0.57;0.50;;;;;;;17.84;52.32;97877.00;4992019;28;20042;-41
2023/01/15 11:38:30;;;;;;;0.40;0.40;;;;;;;17.84;51.88;97866.19;4993472;28;20257;-34
2023/01/15 11:41:00;;;;;;;0.90;0.60;;;;;;;17.84;52.27;97862.69;4994349;28;20585;-34
2023/01/15 11:51:56;;;;;;;0.38;0.38;;;;;;;17.75;52.64;97862.56;4994628;28;20154;-34
2023/01/15 11:54:23;;;;;;;0.52;0.38;;;;;;;17.76;52.40;97869.56;4992497;28;20526;-33
2023/01/15 11:56:49;;;;;;;4.97;0.52;;;;;;;17.82;56.80;97873.78;4996999;28;20072;-27
2023/01/15 11:59:17;;;;;;;8.43;0.57;;;;;;;17.84;53.86;97879.69;4995227;28;20022;-28
2023/01/15 12:02:03;;;;;;;2.75;0.47;;;;;;;17.87;53.52;97869.41;4993491;28;20041;-30
2023/01/15 12:04:48;;;;;;;2.17;0.50;;;;;;;17.92;52.46;97866.63;4993679;28;20113;-30
2023/01/15 12:07:13;;;;;;;0.40;0.40;;;;;;;17.98;52.17;97874.34;4995763;28;20038;-29
2023/01/15 12:10:20;;;;;;;2.45;0.60;;;;;;;17.94;51.74;97880.66;4995492;28;20500;-28
2023/01/15 12:13:26;;;;;;;2.20;0.68;;;;;;;17.98;51.44;97887.84;4982782;28;20121;-30
2023/01/15 12:16:21;;;;;;;1.65;0.60;;;;;;;17.99;52.49;97877.88;4997156;28;20034;-28
2023/01/15 12:19:08;;;;;;;0.60;0.43;;;;;;;18.00;52.48;97884.88;4993979;28;20026;-30
2023/01/15 12:21:52;;;;;;;0.82;0.40;;;;;;;17.98;52.45;97868.94;4991584;28;20381;-30
2023/01/15 12:24:33;;;;;;;0.98;0.50;;;;;;;18.00;52.49;97857.84;4987856;28;20679;-28
2023/01/15 12:27:15;;;;;;;0.47;0.40;;;;;;;18.01;51.95;97872.97;4990966;28;20129;-28
2023/01/15 12:30:02;;;;;;;0.40;0.40;;;;;;;18.04;52.75;97880.47;4991249;28;20029;-27
2023/01/15 12:32:42;;;;;;;0.80;0.40;;;;;;;18.01;52.46;97876.47;4997289;28;20057;-32
2023/01/15 12:35:40;;;;;;;0.68;0.50;;;;;;;18.00;52.23;97869.44;4989780;28;20049;-29